createdAt,value
2018-07-31T00:01:28.551Z,68.60
2018-07-31T00:03:58.094Z,68.20
2018-07-31T00:06:26.665Z,68.80
2018-07-31T00:08:56.031Z,68.60
2018-07-31T00:11:25.310Z,69.00
2018-07-31T00:13:53.936Z,69.10
2018-07-31T00:16:22.455Z,68.50
2018-07-31T00:18:50.960Z,68.90
2018-07-31T00:21:19.422Z,68.90
2018-07-31T00:23:48.672Z,68.80
2018-07-31T00:26:17.172Z,69.40
2018-07-31T00:28:45.638Z,69.70
2018-07-31T00:31:15.703Z,68.80
2018-07-31T00:33:44.153Z,69.20
2018-07-31T00:36:12.629Z,69.30
2018-07-31T00:38:41.109Z,69.10
2018-07-31T00:41:09.581Z,69.40
2018-07-31T00:43:38.683Z,69.50
2018-07-31T00:46:07.193Z,69.40
2018-07-31T00:48:35.766Z,69.70
2018-07-31T00:51:04.222Z,69.50
2018-07-31T00:53:32.698Z,70.50
2018-07-31T00:56:01.171Z,69.40
2018-07-31T00:58:29.620Z,69.90
2018-07-31T01:00:58.171Z,70.30
2018-07-31T01:03:28.713Z,69.80
2018-07-31T01:05:57.920Z,70.10
2018-07-31T01:08:26.451Z,70.50
2018-07-31T01:10:55.010Z,70.30
2018-07-31T01:13:23.464Z,70.70
2018-07-31T01:15:51.912Z,70.70
2018-07-31T01:18:20.393Z,70.20
2018-07-31T01:20:50.541Z,70.10
2018-07-31T01:23:19.123Z,71.20
2018-07-31T01:25:47.837Z,71.10
2018-07-31T01:28:16.421Z,71.00
2018-07-31T01:30:44.927Z,70.80
2018-07-31T01:33:13.373Z,71.00
2018-07-31T01:35:42.142Z,70.70
2018-07-31T01:38:10.636Z,71.40
2018-07-31T01:40:39.197Z,71.50
2018-07-31T01:43:07.647Z,71.70
2018-07-31T01:45:36.436Z,71.80
2018-07-31T01:48:05.153Z,71.00
2018-07-31T01:50:33.807Z,71.20
2018-07-31T01:53:02.666Z,71.30
2018-07-31T01:55:31.560Z,71.10
2018-07-31T01:58:00.306Z,71.10
2018-07-31T02:00:28.988Z,71.70
2018-07-31T02:02:58.016Z,71.20
2018-07-31T02:05:26.507Z,71.60
2018-07-31T02:07:54.963Z,71.60
2018-07-31T02:10:23.539Z,71.80
2018-07-31T02:12:52.118Z,71.90
2018-07-31T02:15:21.135Z,72.20
2018-07-31T02:17:50.374Z,72.60
2018-07-31T02:20:18.929Z,72.40
2018-07-31T02:22:48.276Z,73.10
2018-07-31T02:25:17.480Z,72.80
2018-07-31T02:27:45.950Z,73.30
2018-07-31T02:30:19.672Z,73.00
2018-07-31T02:32:49.611Z,72.40
2018-07-31T02:35:18.316Z,72.60
2018-07-31T02:37:46.898Z,73.60
2018-07-31T02:42:43.735Z,73.00
2018-07-31T02:45:13.901Z,73.20
2018-07-31T02:47:43.369Z,73.10
2018-07-31T02:50:11.841Z,72.10
2018-07-31T02:52:40.628Z,73.10
2018-07-31T02:55:10.922Z,73.30
2018-07-31T02:57:40.077Z,73.40
2018-07-31T03:00:09.481Z,73.20
2018-07-31T03:02:38.143Z,72.70
2018-07-31T03:05:08.160Z,73.90
2018-07-31T03:07:36.706Z,74.30
2018-07-31T03:10:06.712Z,74.90
2018-07-31T03:12:35.877Z,75.50
2018-07-31T03:15:04.866Z,75.20
2018-07-31T03:17:36.465Z,74.90
2018-07-31T03:20:05.555Z,74.70
2018-07-31T03:22:35.688Z,75.00
2018-07-31T03:25:05.187Z,74.80
2018-07-31T03:27:33.667Z,75.20
2018-07-31T03:30:03.614Z,75.60
2018-07-31T03:32:32.283Z,75.60
2018-07-31T03:35:00.769Z,76.50
2018-07-31T03:37:29.516Z,76.50
2018-07-31T03:39:58.332Z,76.30
2018-07-31T03:42:27.854Z,76.00
2018-07-31T03:44:56.440Z,75.60
2018-07-31T03:47:24.965Z,76.20
2018-07-31T03:49:53.646Z,76.50
2018-07-31T03:52:23.135Z,77.60
2018-07-31T03:54:51.995Z,77.80
2018-07-31T03:57:20.530Z,78.50
2018-07-31T03:59:49.108Z,79.50
2018-07-31T04:02:17.600Z,79.90
2018-07-31T04:04:46.110Z,79.50
2018-07-31T04:07:15.264Z,78.50
2018-07-31T04:09:44.239Z,78.30
2018-07-31T04:12:12.895Z,79.00
2018-07-31T04:14:41.544Z,78.60
2018-07-31T04:17:10.058Z,78.80
2018-07-31T04:19:38.744Z,78.40
2018-07-31T04:22:08.278Z,78.00
2018-07-31T04:24:37.409Z,78.90
2018-07-31T04:27:05.960Z,79.00
2018-07-31T04:29:35.124Z,78.90
2018-07-31T04:32:05.252Z,79.30
2018-07-31T04:34:33.742Z,80.10
2018-07-31T04:37:02.242Z,78.60
2018-07-31T04:39:30.832Z,78.90
2018-07-31T04:41:59.471Z,79.10
2018-07-31T04:44:28.037Z,78.50
2018-07-31T04:46:56.995Z,79.10
2018-07-31T04:49:26.221Z,79.50
2018-07-31T04:51:54.736Z,80.10
2018-07-31T04:54:23.334Z,79.10
2018-07-31T04:56:51.976Z,79.30
2018-07-31T04:59:20.500Z,79.00
2018-07-31T05:01:49.893Z,80.50
2018-07-31T05:04:18.546Z,79.70
2018-07-31T05:06:47.599Z,79.20
2018-07-31T05:09:16.767Z,79.10
2018-07-31T05:11:45.423Z,78.40
2018-07-31T05:14:14.680Z,79.10
2018-07-31T05:16:43.166Z,79.20
2018-07-31T05:19:15.532Z,79.20
2018-07-31T05:21:44.160Z,79.20
2018-07-31T05:24:12.704Z,79.40
2018-07-31T05:26:41.310Z,79.00
2018-07-31T05:29:14.722Z,79.40
2018-07-31T05:31:43.270Z,80.20
2018-07-31T05:34:11.806Z,79.70
2018-07-31T05:36:40.923Z,79.90
2018-07-31T05:39:13.717Z,80.00
2018-07-31T05:41:42.351Z,80.00
2018-07-31T05:44:10.803Z,80.00
2018-07-31T05:46:39.342Z,80.00
2018-07-31T05:49:07.979Z,79.10
2018-07-31T05:51:36.485Z,78.20
2018-07-31T05:54:05.141Z,78.30
2018-07-31T05:56:34.211Z,76.90
2018-07-31T05:59:03.651Z,76.70
2018-07-31T06:01:33.118Z,76.20
2018-07-31T06:04:01.661Z,76.50
2018-07-31T06:06:30.218Z,76.40
2018-07-31T06:08:58.850Z,76.20
2018-07-31T06:11:27.508Z,75.80
2018-07-31T06:13:56.038Z,75.60
2018-07-31T06:16:25.448Z,75.60
2018-07-31T06:18:54.765Z,75.30
2018-07-31T06:21:23.456Z,75.10
2018-07-31T06:23:51.968Z,75.00
2018-07-31T06:26:20.472Z,74.90
2018-07-31T06:28:48.983Z,74.80
2018-07-31T06:31:17.500Z,75.00
2018-07-31T06:33:46.014Z,74.40
2018-07-31T06:36:14.543Z,74.20
2018-07-31T06:38:43.780Z,74.20
2018-07-31T06:41:12.360Z,74.40
2018-07-31T06:43:40.963Z,75.20
2018-07-31T06:46:09.467Z,75.00
2018-07-31T06:48:37.931Z,75.30
2018-07-31T06:51:07.695Z,75.70
2018-07-31T06:53:36.216Z,75.50
2018-07-31T06:56:04.730Z,75.60
2018-07-31T06:58:33.209Z,75.70
2018-07-31T07:01:01.757Z,75.40
2018-07-31T07:03:30.309Z,75.10
2018-07-31T07:05:58.829Z,74.60
2018-07-31T07:08:27.326Z,74.40
2018-07-31T07:10:55.871Z,74.50
2018-07-31T07:13:24.418Z,74.50
2018-07-31T07:15:52.924Z,74.60
2018-07-31T07:18:21.426Z,74.10
2018-07-31T07:20:49.927Z,74.10
2018-07-31T07:23:18.467Z,72.70
2018-07-31T07:25:47.660Z,71.70
2018-07-31T07:28:16.204Z,71.20
2018-07-31T07:30:44.936Z,69.90
2018-07-31T07:33:14.155Z,69.90
2018-07-31T07:35:43.294Z,69.00
2018-07-31T07:38:11.826Z,69.30
2018-07-31T07:40:40.405Z,68.10
2018-07-31T07:43:08.911Z,67.60
2018-07-31T07:45:37.407Z,67.60
2018-07-31T07:48:06.122Z,66.70
2018-07-31T07:50:34.997Z,66.20
2018-07-31T07:53:03.461Z,65.20
2018-07-31T07:55:31.968Z,65.10
2018-07-31T07:58:00.488Z,64.80
2018-07-31T08:00:29.048Z,62.80
2018-07-31T08:02:57.503Z,61.60
2018-07-31T08:05:26.005Z,62.00
2018-07-31T08:07:54.495Z,61.90
2018-07-31T08:10:23.078Z,59.20
2018-07-31T08:12:51.652Z,58.00
2018-07-31T08:15:21.355Z,56.80
2018-07-31T08:17:49.856Z,56.10
2018-07-31T08:20:18.430Z,56.20
2018-07-31T08:22:47.114Z,53.90
2018-07-31T08:25:15.696Z,54.70
2018-07-31T08:27:44.287Z,54.80
2018-07-31T08:30:12.737Z,54.60
2018-07-31T08:32:41.239Z,55.20
2018-07-31T08:35:09.810Z,55.00
2018-07-31T08:37:38.286Z,54.60
2018-07-31T08:40:07.540Z,53.80
2018-07-31T08:42:36.100Z,55.90
2018-07-31T08:45:05.280Z,54.70
2018-07-31T08:47:33.832Z,55.00
2018-07-31T08:50:02.389Z,56.50
2018-07-31T08:52:31.033Z,54.00
2018-07-31T08:54:59.605Z,54.20
2018-07-31T08:57:28.124Z,54.40
2018-07-31T08:59:56.596Z,53.10
2018-07-31T09:02:25.100Z,52.60
2018-07-31T09:04:53.646Z,53.80
2018-07-31T09:07:22.189Z,53.00
2018-07-31T09:09:50.698Z,52.00
2018-07-31T09:12:19.295Z,52.40
2018-07-31T09:14:47.791Z,52.10
2018-07-31T09:17:16.321Z,50.00
2018-07-31T09:19:49.131Z,49.90
2018-07-31T09:22:17.666Z,51.00
2018-07-31T09:24:46.288Z,50.00
2018-07-31T09:27:14.892Z,50.50
2018-07-31T09:29:44.984Z,46.90
2018-07-31T09:32:13.516Z,46.70
2018-07-31T09:34:46.037Z,47.40
2018-07-31T09:37:15.039Z,48.60
2018-07-31T09:39:43.544Z,49.40
2018-07-31T09:42:12.116Z,47.50
2018-07-31T09:44:41.319Z,45.70
2018-07-31T09:47:09.797Z,46.80
2018-07-31T09:49:38.367Z,45.40
2018-07-31T09:52:07.402Z,46.80
2018-07-31T09:54:35.985Z,47.20
2018-07-31T09:57:04.932Z,47.70
2018-07-31T09:59:34.154Z,48.10
2018-07-31T10:02:02.783Z,48.50
2018-07-31T10:04:31.300Z,49.20
2018-07-31T10:07:04.198Z,49.00
2018-07-31T10:09:32.700Z,49.20
2018-07-31T10:12:01.265Z,47.70
2018-07-31T10:14:29.784Z,46.60
2018-07-31T10:16:58.321Z,47.50
2018-07-31T10:19:26.883Z,47.00
2018-07-31T10:21:55.365Z,47.60
2018-07-31T10:24:23.870Z,46.10
2018-07-31T10:26:52.375Z,44.10
2018-07-31T10:29:20.895Z,46.80
2018-07-31T10:31:49.473Z,47.30
2018-07-31T10:34:18.498Z,45.50
2018-07-31T10:36:47.121Z,44.60
2018-07-31T10:39:15.595Z,45.40
2018-07-31T10:41:44.120Z,46.70
2018-07-31T10:44:12.667Z,46.50
2018-07-31T10:46:41.216Z,47.20
2018-07-31T10:49:09.724Z,46.60
2018-07-31T10:51:38.252Z,46.70
2018-07-31T10:54:06.864Z,47.00
2018-07-31T10:56:35.460Z,46.60
2018-07-31T10:59:08.704Z,45.70
2018-07-31T11:01:37.228Z,45.80
2018-07-31T11:04:05.908Z,45.50
2018-07-31T11:06:34.391Z,44.60
2018-07-31T11:09:02.960Z,45.30
2018-07-31T11:11:31.428Z,43.20
2018-07-31T11:13:59.947Z,42.20
2018-07-31T11:16:28.434Z,44.20
2018-07-31T11:18:56.984Z,45.60
2018-07-31T11:21:26.041Z,46.10
2018-07-31T11:23:54.558Z,46.70
2018-07-31T11:26:23.406Z,45.90
2018-07-31T11:28:51.901Z,47.10
2018-07-31T11:31:20.402Z,45.00
2018-07-31T11:33:49.398Z,44.00
2018-07-31T11:36:17.936Z,43.10
2018-07-31T11:38:46.445Z,42.50
2018-07-31T11:41:14.972Z,41.50
2018-07-31T11:43:43.464Z,41.10
2018-07-31T11:46:11.982Z,43.00
2018-07-31T11:48:40.597Z,41.00
2018-07-31T11:51:09.097Z,43.80
2018-07-31T11:53:37.620Z,41.60
2018-07-31T11:56:06.112Z,42.90
2018-07-31T11:58:34.638Z,42.20
2018-07-31T12:01:03.221Z,41.90
2018-07-31T12:03:31.737Z,42.40
2018-07-31T12:06:00.297Z,42.60
2018-07-31T12:08:28.831Z,41.50
2018-07-31T12:10:57.330Z,41.80
2018-07-31T12:13:25.967Z,41.90
2018-07-31T12:15:55.242Z,42.20
2018-07-31T12:18:23.833Z,40.60
2018-07-31T12:20:52.464Z,40.90
2018-07-31T12:23:21.069Z,40.80
2018-07-31T12:25:49.680Z,42.60
2018-07-31T12:28:18.276Z,41.20
2018-07-31T12:30:46.911Z,40.50
2018-07-31T12:33:15.436Z,39.30
2018-07-31T12:35:43.978Z,39.80
2018-07-31T12:38:13.287Z,39.50
2018-07-31T12:40:41.705Z,35.80
2018-07-31T12:43:10.200Z,35.80
2018-07-31T12:45:38.841Z,35.50
2018-07-31T12:48:07.448Z,35.00
2018-07-31T12:50:35.976Z,35.30
2018-07-31T12:53:04.979Z,36.80
2018-07-31T12:55:33.513Z,34.20
2018-07-31T12:58:02.120Z,34.70
2018-07-31T13:00:30.648Z,33.70
2018-07-31T13:02:59.171Z,33.80
2018-07-31T13:05:27.656Z,33.20
2018-07-31T13:07:56.192Z,34.50
2018-07-31T13:10:24.790Z,33.90
2018-07-31T13:12:53.315Z,32.00
2018-07-31T13:15:21.858Z,32.10
2018-07-31T13:17:50.520Z,34.60
2018-07-31T13:20:19.051Z,33.70
2018-07-31T13:22:47.766Z,33.60
2018-07-31T13:25:16.276Z,33.40
2018-07-31T13:27:44.879Z,33.60
2018-07-31T13:30:13.329Z,32.80
2018-07-31T13:32:41.864Z,32.60
2018-07-31T13:35:15.307Z,33.80
2018-07-31T13:37:43.808Z,32.70
2018-07-31T13:40:12.330Z,34.50
2018-07-31T13:42:41.043Z,32.20
2018-07-31T13:45:10.040Z,33.10
2018-07-31T13:47:38.560Z,33.80
2018-07-31T13:50:07.209Z,32.80
2018-07-31T13:52:35.769Z,34.90
2018-07-31T13:55:04.753Z,33.20
2018-07-31T13:57:33.357Z,33.80
2018-07-31T14:00:01.943Z,32.50
2018-07-31T14:02:30.710Z,32.40
2018-07-31T14:04:59.270Z,35.10
2018-07-31T14:07:27.788Z,33.00
2018-07-31T14:09:56.285Z,34.60
2018-07-31T14:12:24.853Z,33.90
2018-07-31T14:14:53.445Z,31.60
2018-07-31T14:17:22.001Z,32.10
2018-07-31T14:19:50.645Z,33.20
2018-07-31T14:22:19.155Z,34.80
2018-07-31T14:24:47.752Z,34.20
2018-07-31T14:27:16.257Z,33.10
2018-07-31T14:29:44.792Z,32.70
2018-07-31T14:32:13.305Z,31.70
2018-07-31T14:34:41.933Z,33.60
2018-07-31T14:37:10.451Z,33.30
2018-07-31T14:39:53.719Z,34.00
2018-07-31T14:42:22.358Z,34.10
2018-07-31T14:44:52.025Z,33.20
2018-07-31T14:47:20.528Z,33.90
2018-07-31T14:49:49.020Z,32.50
2018-07-31T14:52:17.526Z,32.60
2018-07-31T14:54:46.030Z,33.40
2018-07-31T14:57:14.529Z,35.30
2018-07-31T14:59:43.054Z,32.40
2018-07-31T15:02:11.690Z,34.10
2018-07-31T15:04:40.172Z,32.60
2018-07-31T15:07:08.710Z,33.60
2018-07-31T15:09:37.244Z,33.90
2018-07-31T15:12:05.904Z,32.30
2018-07-31T15:14:34.412Z,33.20
2018-07-31T15:17:02.929Z,34.00
2018-07-31T15:19:31.519Z,34.10
2018-07-31T15:22:00.035Z,34.40
2018-07-31T15:24:28.638Z,33.00
2018-07-31T15:26:57.131Z,33.60
2018-07-31T15:29:25.702Z,32.10
2018-07-31T15:31:54.284Z,33.70
2018-07-31T15:34:22.897Z,33.00
2018-07-31T15:36:51.530Z,32.20
2018-07-31T15:39:20.067Z,34.00
2018-07-31T15:41:48.648Z,33.00
2018-07-31T15:44:17.145Z,32.60
2018-07-31T15:46:45.734Z,33.40
2018-07-31T15:49:14.292Z,32.30
2018-07-31T15:51:42.846Z,33.40
2018-07-31T15:54:11.347Z,32.90
2018-07-31T15:56:39.872Z,34.50
2018-07-31T15:59:08.417Z,34.70
2018-07-31T16:01:36.933Z,35.20
2018-07-31T16:04:05.514Z,35.20
2018-07-31T16:06:34.088Z,36.40
2018-07-31T16:09:02.615Z,35.70
2018-07-31T16:11:31.854Z,35.90
2018-07-31T16:14:00.352Z,36.60
2018-07-31T16:16:32.742Z,36.80
2018-07-31T16:19:01.354Z,36.30
2018-07-31T16:21:30.040Z,36.90
2018-07-31T16:23:58.577Z,36.60
2018-07-31T16:26:27.131Z,37.90
2018-07-31T16:28:55.705Z,37.40
2018-07-31T16:31:24.449Z,37.20
2018-07-31T16:33:53.036Z,36.60
2018-07-31T16:36:21.625Z,36.80
2018-07-31T16:38:50.292Z,37.70
2018-07-31T16:41:18.881Z,38.50
2018-07-31T16:43:47.386Z,38.30
2018-07-31T16:46:15.914Z,37.80
2018-07-31T16:48:44.429Z,39.00
2018-07-31T16:51:13.019Z,39.10
2018-07-31T16:53:41.809Z,39.20
2018-07-31T16:56:11.194Z,38.90
2018-07-31T16:58:39.802Z,39.30
2018-07-31T17:01:08.324Z,39.90
2018-07-31T17:03:36.830Z,39.20
2018-07-31T17:06:06.004Z,39.30
2018-07-31T17:08:34.552Z,39.50
2018-07-31T17:11:03.891Z,39.90
2018-07-31T17:13:32.401Z,39.00
2018-07-31T17:16:01.005Z,39.80
2018-07-31T17:18:29.653Z,39.90
2018-07-31T17:20:58.195Z,39.70
2018-07-31T17:23:26.785Z,40.30
2018-07-31T17:28:23.809Z,40.00
2018-07-31T17:30:52.416Z,39.90
2018-07-31T17:33:25.464Z,39.90
2018-07-31T17:35:54.166Z,39.60
2018-07-31T17:38:22.711Z,39.70
2018-07-31T17:40:51.210Z,39.50
2018-07-31T17:43:19.777Z,38.30
2018-07-31T17:45:48.395Z,38.40
2018-07-31T17:48:17.063Z,38.50
2018-07-31T17:50:45.665Z,40.10
2018-07-31T17:53:14.171Z,39.60
2018-07-31T17:55:42.754Z,40.20
2018-07-31T17:58:11.461Z,40.20
2018-07-31T18:00:40.295Z,40.70
2018-07-31T18:03:08.922Z,41.00
2018-07-31T18:05:37.512Z,41.00
2018-07-31T18:08:06.102Z,41.70
2018-07-31T18:10:35.522Z,42.70
2018-07-31T18:13:04.951Z,42.40
2018-07-31T18:15:33.522Z,42.40
2018-07-31T18:18:02.989Z,42.40
2018-07-31T18:20:31.492Z,42.80
2018-07-31T18:23:00.112Z,43.30
2018-07-31T18:25:28.659Z,43.10
2018-07-31T18:30:25.471Z,43.50
2018-07-31T18:32:54.075Z,43.90
2018-07-31T18:35:22.677Z,44.10
2018-07-31T18:37:51.411Z,44.20
2018-07-31T18:40:20.123Z,44.50
2018-07-31T18:42:48.712Z,44.00
2018-07-31T18:45:17.259Z,44.40
2018-07-31T18:47:45.933Z,44.40
2018-07-31T18:50:14.472Z,44.90
2018-07-31T18:52:43.105Z,44.60
2018-07-31T18:55:11.713Z,44.20
2018-07-31T18:57:40.222Z,44.40
2018-07-31T19:00:08.758Z,44.50
2018-07-31T19:02:37.256Z,45.70
2018-07-31T19:05:06.479Z,45.60
2018-07-31T19:07:35.092Z,45.10
